ADDS TAF Board (Experimental) INFO Settings
IDs: Format: Expanded Condensed

KMEM - Memphis Intl, TN, US

Issued at 0901 UTC 26 May 2016
Updated at: 1034 UTC 26 May 2016
Time0954Z 26/11Z 26/12Z 26/13Z 26/14Z 26/15Z 26/16Z 26/17Z 26/18Z 26/19Z 26/20Z 26/21Z 26/22Z 26/23Z
Type OBS PRVL PRVL PRVL
  [TEMP]  
PRVL
  [TEMP]  
PRVL PRVL PRVL PRVL PRVL PRVL PRVL PRVL PRVL
VIS 10 >6 >6 >6 >6 >6 >6 >6 >6 >6 >6 >6 >6 >6
CIG 35 20 20 15
  [10]  
15
  [10]  
15 40 40 40 40 40 40 40 40
Cover BKN OVC OVC OVC
  [OVC]  
OVC
  [OVC]  
OVC OVC OVC OVC OVC OVC OVC OVC OVC
FltCat VFR MVFR MVFR MVFR
  [MVFR]  
MVFR
  [MVFR]  
MVFR VFR VFR VFR VFR VFR VFR VFR VFR
WX -- -- -- --
  [--]  
--
  [--]  
-- -- -- -- -- -- -- -- --
WDir 180 190 190 190
[190]
190
[190]
190 190 190 190 190 190 190 190 190
WSpd 10 10 10 9
  [9]  
9
  [9]  
9 10 10 10 10 10 10 10 10
WGst -- -- -- --
  [--]  
--
  [--]  
-- -- -- -- -- -- -- -- --
R09/27
XWnd -10 -10 -10 -9 -9 -9 -10 -10 -10 -10 -10 -10 -10 -10
XGst -- -- -- 0 0 -- -- -- -- -- -- -- -- --
HWnd 0 -1 -1 -1 -1 -1 -1 -1 -1 -1 -1 -1 -1 -1
HGst -- -- -- 0 0 -- -- -- -- -- -- -- -- --
R18/36
XWnd -0 -2 -2 -2 -2 -2 -2 -2 -2 -2 -2 -2 -2 -2
XGst -- -- -- 0 0 -- -- -- -- -- -- -- -- --
HWnd 10 10 10 9 9 9 10 10 10 10 10 10 10 10
HGst -- -- -- 0 0 -- -- -- -- -- -- -- -- --

NOTE: TEMPO conditions in [brackets]. Keep in mind TEMPO conditions might be better (lower impact) than prevailing conditions.

Raw TAF
KMEM 260901Z 2609/2706 18007KT P6SM BKN040 BKN250
  FM261100 19010KT P6SM OVC020
  FM261300 19009KT P6SM OVC015
  TEMPO 2613/2615 OVC010
  FM261600 19010KT P6SM OVC040
  FM270000 18010KT P6SM VCTS BKN040CB


Raw METAR
KMEM 260954Z 18010KT 10SM BKN035 BKN046 24/19 A3003 RMK AO2 SLP165 T02390194 $
KMEM 260943Z 18010KT 10SM FEW029 BKN037 OVC060 23/19 A3003 RMK AO2 $
KMEM 260919Z 19008KT 10SM SCT033 BKN050 BKN060 23/19 A3003 RMK AO2 $
KMEM 260854Z 18006KT 10SM BKN038 BKN046 23/18 A3003 RMK AO2 SLP165 T02280183 58002 $
KMEM 260844Z 18007KT 10SM BKN038 OVC046 23/18 A3003 RMK AO2 $
KMEM 260829Z 18007KT 10SM BKN040 22/18 A3003 RMK AO2 $
KMEM 260754Z 18007KT 10SM BKN037 22/18 A3003 RMK AO2 SLP166 T02170178 $
KMEM 260748Z 17007KT 10SM BKN037 22/18 A3003 RMK AO2 $

METAR Board
Radar Display
Forecast Discussion

TAF Board Legend

Potential Impact
Threat None Slight Moderate High
Visibility (sm) ≥5.1 5.1>X≥3 3>X≥1 <1
Ceiling (100 ft) ≥30.1 30.1>X≥10 10>X≥5 <5
Wind Speed (kt) <10 10≤X<20 20≤X<30 ≥30
Wind Gust (kt) <15 15≤X<25 25≤X<35 ≥35
Weather No Wx Reported VCTS,-TS,-FZRA,SN TS,FZRA +TS,+FZRA,+SN